createdAt,value
2023-06-17T00:00:53.501Z,76.40
2023-06-17T00:03:20.376Z,76.40
2023-06-17T00:05:47.105Z,76.40
2023-06-17T00:08:13.852Z,76.40
2023-06-17T00:10:40.628Z,76.40
2023-06-17T00:13:08.620Z,76.30
2023-06-17T00:15:36.951Z,76.30
2023-06-17T00:18:08.613Z,76.30
2023-06-17T00:20:37.649Z,76.30
2023-06-17T00:23:05.297Z,76.40
2023-06-17T00:25:32.365Z,76.40
2023-06-17T00:27:59.455Z,76.30
2023-06-17T00:30:26.288Z,76.40
2023-06-17T00:32:53.074Z,76.40
2023-06-17T00:35:21.403Z,76.30
2023-06-17T00:37:48.279Z,76.30
2023-06-17T00:40:15.070Z,76.30
2023-06-17T00:42:41.820Z,76.30
2023-06-17T00:45:08.933Z,76.30
2023-06-17T00:47:36.071Z,76.30
2023-06-17T00:50:04.178Z,76.30
2023-06-17T00:52:41.770Z,76.40
2023-06-17T00:55:10.816Z,76.40
2023-06-17T00:57:41.450Z,76.40
2023-06-17T01:00:12.583Z,76.40
2023-06-17T01:02:41.587Z,76.40
2023-06-17T01:05:13.751Z,76.40
2023-06-17T01:08:04.107Z,76.40
2023-06-17T01:10:49.010Z,76.40
2023-06-17T01:13:17.559Z,76.50
2023-06-17T01:15:46.597Z,76.60
2023-06-17T01:18:18.901Z,76.50
2023-06-17T01:20:49.612Z,76.50
2023-06-17T01:23:17.817Z,76.50
2023-06-17T01:25:45.402Z,76.60
2023-06-17T01:28:18.614Z,76.60
2023-06-17T01:30:46.401Z,76.60
2023-06-17T01:33:14.817Z,76.60
2023-06-17T01:36:01.328Z,76.50
2023-06-17T01:38:47.855Z,76.50
2023-06-17T01:41:23.343Z,76.50
2023-06-17T01:43:52.938Z,76.50
2023-06-17T01:46:20.824Z,76.50
2023-06-17T01:48:47.692Z,76.60
2023-06-17T01:51:14.422Z,76.50
2023-06-17T01:53:41.703Z,76.50
2023-06-17T01:56:09.018Z,76.60
2023-06-17T01:58:36.606Z,76.60
2023-06-17T02:01:03.599Z,76.60
2023-06-17T02:03:30.637Z,76.60
2023-06-17T02:05:57.677Z,76.60
2023-06-17T02:08:24.819Z,76.60
2023-06-17T02:10:52.072Z,76.60
2023-06-17T02:13:18.889Z,76.60
2023-06-17T02:15:45.880Z,76.60
2023-06-17T02:18:13.698Z,76.60
2023-06-17T02:20:40.508Z,76.60
2023-06-17T02:23:07.332Z,76.60
2023-06-17T02:25:34.067Z,76.60
2023-06-17T02:28:00.925Z,76.60
2023-06-17T02:30:27.828Z,76.60
2023-06-17T02:32:54.783Z,76.60
2023-06-17T02:35:21.663Z,76.60
2023-06-17T02:37:48.421Z,76.60
2023-06-17T02:40:15.323Z,76.60
2023-06-17T02:42:42.208Z,76.60
2023-06-17T02:45:12.265Z,76.70
2023-06-17T02:47:39.461Z,76.70
2023-06-17T02:50:07.427Z,76.70
2023-06-17T02:52:35.462Z,76.70
2023-06-17T02:55:04.104Z,76.70
2023-06-17T02:57:30.859Z,76.70
2023-06-17T02:59:57.563Z,76.70
2023-06-17T03:02:24.403Z,76.70
2023-06-17T03:04:54.988Z,76.60
2023-06-17T03:07:25.619Z,76.60
2023-06-17T03:09:53.145Z,76.70
2023-06-17T03:12:20.076Z,76.60
2023-06-17T03:14:48.571Z,76.70
2023-06-17T03:17:17.967Z,76.70
2023-06-17T03:19:45.626Z,76.70
2023-06-17T03:22:12.427Z,76.60
2023-06-17T03:24:43.463Z,76.60
2023-06-17T03:27:11.329Z,76.60
2023-06-17T03:29:38.225Z,76.60
2023-06-17T03:32:05.957Z,76.50
2023-06-17T03:34:34.058Z,76.50
2023-06-17T03:37:05.914Z,76.50
2023-06-17T03:39:32.728Z,76.40
2023-06-17T03:41:59.577Z,76.30
2023-06-17T03:44:26.957Z,76.30
2023-06-17T03:46:53.774Z,76.30
2023-06-17T03:49:20.575Z,76.20
2023-06-17T03:51:48.658Z,76.20
2023-06-17T03:54:16.211Z,76.20
2023-06-17T03:56:43.120Z,76.20
2023-06-17T03:59:10.050Z,76.20
2023-06-17T04:01:37.008Z,76.20
2023-06-17T04:04:04.206Z,76.20
2023-06-17T04:06:31.481Z,76.30
2023-06-17T04:08:58.294Z,76.30
2023-06-17T04:11:25.989Z,76.20
2023-06-17T04:13:52.872Z,76.20
2023-06-17T04:16:22.761Z,76.20
2023-06-17T04:18:49.504Z,76.30
2023-06-17T04:21:16.566Z,76.30
2023-06-17T04:23:43.814Z,76.30
2023-06-17T04:26:14.137Z,76.20
2023-06-17T04:28:41.360Z,76.30
2023-06-17T04:31:11.868Z,76.50
2023-06-17T04:33:39.629Z,76.70
2023-06-17T04:36:09.492Z,76.50
2023-06-17T04:38:38.757Z,76.40
2023-06-17T04:41:06.871Z,76.40
2023-06-17T04:43:34.820Z,76.40
2023-06-17T04:46:02.230Z,76.50
2023-06-17T04:48:31.998Z,76.70
2023-06-17T04:51:00.147Z,76.70
2023-06-17T04:53:27.885Z,76.70
2023-06-17T04:55:54.909Z,76.90
2023-06-17T04:58:22.142Z,77.00
2023-06-17T05:00:52.003Z,77.00
2023-06-17T05:03:25.559Z,77.30
2023-06-17T05:05:54.549Z,77.60
2023-06-17T05:08:22.579Z,78.10
2023-06-17T05:10:49.336Z,78.40
2023-06-17T05:13:16.962Z,78.40
2023-06-17T05:15:43.702Z,78.10
2023-06-17T05:18:10.588Z,77.90
2023-06-17T05:20:37.425Z,77.90
2023-06-17T05:23:04.213Z,77.80
2023-06-17T05:25:30.925Z,77.80
2023-06-17T05:27:58.782Z,77.70
2023-06-17T05:30:27.797Z,77.80
2023-06-17T05:32:57.164Z,77.70
2023-06-17T05:35:23.944Z,77.80
2023-06-17T05:37:50.937Z,77.70
2023-06-17T05:40:17.672Z,77.70
2023-06-17T05:42:44.611Z,77.70
2023-06-17T05:45:12.462Z,77.70
2023-06-17T05:47:39.723Z,77.80
2023-06-17T05:50:06.781Z,77.90
2023-06-17T05:52:34.340Z,77.70
2023-06-17T05:55:01.293Z,77.70
2023-06-17T05:57:28.037Z,77.70
2023-06-17T05:59:54.779Z,77.70
2023-06-17T06:02:21.681Z,77.70
2023-06-17T06:04:49.596Z,78.00
2023-06-17T06:07:16.328Z,78.50
2023-06-17T06:09:43.108Z,78.90
2023-06-17T06:12:09.932Z,79.10
2023-06-17T06:14:37.134Z,79.30
2023-06-17T06:17:05.197Z,79.70
2023-06-17T06:19:31.928Z,79.90
2023-06-17T06:21:58.844Z,80.00
2023-06-17T06:24:25.625Z,80.10
2023-06-17T06:26:52.413Z,80.20
2023-06-17T06:29:19.726Z,80.30
2023-06-17T06:31:47.520Z,80.20
2023-06-17T06:34:15.980Z,80.20
2023-06-17T06:36:42.839Z,80.30
2023-06-17T06:39:15.105Z,80.60
2023-06-17T06:41:42.166Z,80.40
2023-06-17T06:44:27.491Z,80.40
2023-06-17T06:46:56.005Z,80.30
2023-06-17T06:49:23.484Z,80.20
2023-06-17T06:51:50.502Z,80.20
2023-06-17T06:54:17.553Z,80.20
2023-06-17T06:56:45.257Z,80.00
2023-06-17T06:59:12.195Z,80.10
2023-06-17T07:01:39.697Z,80.10
2023-06-17T07:04:07.250Z,80.10
2023-06-17T07:06:34.011Z,80.10
2023-06-17T07:09:03.852Z,80.10
2023-06-17T07:11:31.035Z,80.20
2023-06-17T07:13:58.096Z,80.30
2023-06-17T07:16:24.830Z,80.40
2023-06-17T07:18:53.320Z,80.60
2023-06-17T07:21:20.060Z,80.60
2023-06-17T07:23:46.854Z,80.50
2023-06-17T07:26:13.609Z,80.30
2023-06-17T07:28:40.353Z,80.40
2023-06-17T07:31:07.485Z,80.30
2023-06-17T07:33:34.248Z,80.10
2023-06-17T07:36:01.197Z,80.00
2023-06-17T07:38:29.013Z,80.10
2023-06-17T07:40:55.853Z,80.10
2023-06-17T07:43:22.555Z,80.10
2023-06-17T07:45:49.842Z,80.20
2023-06-17T07:48:18.110Z,80.30
2023-06-17T07:50:45.452Z,80.20
2023-06-17T07:53:12.202Z,80.40
2023-06-17T07:55:40.334Z,80.10
2023-06-17T07:58:07.023Z,80.20
2023-06-17T08:00:33.743Z,80.30
2023-06-17T08:03:00.956Z,80.20
2023-06-17T08:05:27.829Z,80.00
2023-06-17T08:07:54.643Z,79.90
2023-06-17T08:10:21.561Z,79.90
2023-06-17T08:12:49.669Z,79.80
2023-06-17T08:15:16.938Z,79.70
2023-06-17T08:17:43.737Z,79.60
2023-06-17T08:20:11.239Z,79.50
2023-06-17T08:22:38.403Z,79.50
2023-06-17T08:25:05.827Z,79.40
2023-06-17T08:27:33.292Z,79.40
2023-06-17T08:30:00.343Z,79.30
2023-06-17T08:32:27.146Z,79.20
2023-06-17T08:34:53.828Z,79.20
2023-06-17T08:37:20.632Z,79.10
2023-06-17T08:39:47.368Z,78.90
2023-06-17T08:42:14.103Z,78.70
2023-06-17T08:44:44.374Z,78.60
2023-06-17T08:47:15.925Z,78.50
2023-06-17T08:49:46.870Z,78.50
2023-06-17T08:52:15.209Z,78.60
2023-06-17T08:54:42.599Z,78.50
2023-06-17T08:57:14.158Z,78.20
2023-06-17T08:59:41.810Z,77.90
2023-06-17T09:02:11.603Z,77.70
2023-06-17T09:04:38.526Z,77.60
2023-06-17T09:07:05.673Z,77.40
2023-06-17T09:09:32.368Z,77.40
2023-06-17T09:12:07.258Z,77.30
2023-06-17T09:14:34.945Z,77.00
2023-06-17T09:17:02.521Z,77.10
2023-06-17T09:19:33.101Z,77.20
2023-06-17T09:22:09.170Z,77.20
2023-06-17T09:24:41.885Z,77.10
2023-06-17T09:27:20.935Z,77.00
2023-06-17T09:29:49.365Z,77.00
2023-06-17T09:32:16.668Z,77.00
2023-06-17T09:34:50.002Z,76.80
2023-06-17T09:37:16.784Z,76.60
2023-06-17T09:39:46.936Z,76.40
2023-06-17T09:42:14.142Z,76.30
2023-06-17T09:44:41.328Z,76.30
2023-06-17T09:47:12.328Z,76.20
2023-06-17T09:49:39.333Z,76.00
2023-06-17T09:52:09.296Z,75.70
2023-06-17T09:54:37.805Z,75.70
2023-06-17T09:57:08.502Z,75.50
2023-06-17T09:59:35.297Z,75.80
2023-06-17T10:02:02.293Z,75.80
2023-06-17T10:04:29.084Z,75.80
2023-06-17T10:06:58.640Z,75.50
2023-06-17T10:09:26.052Z,74.70
2023-06-17T10:11:54.848Z,74.60
2023-06-17T10:14:34.400Z,74.70
2023-06-17T10:17:04.397Z,74.70
2023-06-17T10:19:34.542Z,75.20
2023-06-17T10:22:05.804Z,74.90
2023-06-17T10:24:33.458Z,74.60
2023-06-17T10:27:05.099Z,74.40
2023-06-17T10:29:33.406Z,74.30
2023-06-17T10:32:21.282Z,73.90
2023-06-17T10:35:06.413Z,74.10
2023-06-17T10:37:40.028Z,73.80
2023-06-17T10:40:24.682Z,73.80
2023-06-17T10:42:56.758Z,73.70
2023-06-17T10:45:23.577Z,73.80
2023-06-17T10:47:50.636Z,73.90
2023-06-17T10:50:22.544Z,73.90
2023-06-17T10:52:56.444Z,73.80
2023-06-17T10:55:23.212Z,73.80
2023-06-17T10:57:51.350Z,73.70
2023-06-17T11:00:18.655Z,73.80
2023-06-17T11:02:45.871Z,73.80
2023-06-17T11:05:12.922Z,73.70
2023-06-17T11:07:39.652Z,73.80
2023-06-17T11:10:07.230Z,73.70
2023-06-17T11:12:35.778Z,73.70
2023-06-17T11:15:04.564Z,73.70
2023-06-17T11:17:31.658Z,73.70
2023-06-17T11:19:58.511Z,73.70
2023-06-17T11:22:25.219Z,73.60
2023-06-17T11:24:52.165Z,73.50
2023-06-17T11:27:19.067Z,73.50
2023-06-17T11:29:48.226Z,73.50
2023-06-17T11:32:15.130Z,73.50
2023-06-17T11:34:42.551Z,73.50
2023-06-17T11:37:12.248Z,73.50
2023-06-17T11:39:39.862Z,73.30
2023-06-17T11:42:08.196Z,73.40
2023-06-17T11:44:35.982Z,73.50
2023-06-17T11:47:07.664Z,73.30
2023-06-17T11:49:34.870Z,73.40
2023-06-17T11:52:10.631Z,73.20
2023-06-17T11:54:49.844Z,73.30
2023-06-17T11:57:26.064Z,73.40
2023-06-17T11:59:53.580Z,73.30
2023-06-17T12:02:20.737Z,73.30
2023-06-17T12:04:47.811Z,73.40
2023-06-17T12:07:15.113Z,73.40
2023-06-17T12:09:53.025Z,73.30
2023-06-17T12:12:33.865Z,73.20
2023-06-17T12:15:21.037Z,73.20
2023-06-17T12:17:51.794Z,73.10
2023-06-17T12:20:20.675Z,70.30
2023-06-17T12:22:49.727Z,70.00
2023-06-17T12:25:16.733Z,69.70
2023-06-17T12:27:44.088Z,70.00
2023-06-17T12:30:11.951Z,69.60
2023-06-17T12:32:41.024Z,68.70
2023-06-17T12:35:09.335Z,68.00
2023-06-17T12:37:40.944Z,67.10
2023-06-17T12:40:08.684Z,66.50
2023-06-17T12:42:36.680Z,66.40
2023-06-17T12:45:04.760Z,66.80
2023-06-17T12:47:31.776Z,66.80
2023-06-17T12:49:58.578Z,67.30
2023-06-17T12:52:26.453Z,67.40
2023-06-17T12:55:00.736Z,67.50
2023-06-17T12:57:28.278Z,67.60
2023-06-17T12:59:55.107Z,67.30
2023-06-17T13:02:21.990Z,67.40
2023-06-17T13:04:48.736Z,67.80
2023-06-17T13:07:15.649Z,67.90
2023-06-17T13:09:42.396Z,68.40
2023-06-17T13:12:09.504Z,68.10
2023-06-17T13:14:36.166Z,67.80
2023-06-17T13:17:02.939Z,67.80
2023-06-17T13:19:29.853Z,67.90
2023-06-17T13:21:57.639Z,66.40
2023-06-17T13:24:24.630Z,66.60
2023-06-17T13:26:51.444Z,66.30
2023-06-17T13:29:18.761Z,66.60
2023-06-17T13:31:45.486Z,66.30
2023-06-17T13:34:12.742Z,66.50
2023-06-17T13:36:43.212Z,66.40
2023-06-17T13:39:10.138Z,66.60
2023-06-17T13:41:36.827Z,66.80
2023-06-17T13:44:04.747Z,67.10
2023-06-17T13:46:31.615Z,66.30
2023-06-17T13:48:58.978Z,65.50
2023-06-17T13:51:25.926Z,65.30
2023-06-17T13:53:52.623Z,65.80
2023-06-17T13:56:19.853Z,64.60
2023-06-17T13:58:46.594Z,64.40
2023-06-17T14:01:13.544Z,64.30
2023-06-17T14:03:40.352Z,65.00
2023-06-17T14:06:07.383Z,64.70
2023-06-17T14:08:34.183Z,65.00
2023-06-17T14:11:01.052Z,66.30
2023-06-17T14:13:27.793Z,66.40
2023-06-17T14:15:54.658Z,65.70
2023-06-17T14:18:21.412Z,65.90
2023-06-17T14:20:48.202Z,66.00
2023-06-17T14:23:16.257Z,65.40
2023-06-17T14:25:43.109Z,65.30
2023-06-17T14:28:10.208Z,65.60
2023-06-17T14:30:37.451Z,66.30
2023-06-17T14:33:04.413Z,66.80
2023-06-17T14:35:31.291Z,67.60
2023-06-17T14:37:57.999Z,67.50
2023-06-17T14:40:25.161Z,67.40
2023-06-17T14:42:52.165Z,67.60
2023-06-17T14:45:18.872Z,67.40
2023-06-17T14:47:45.940Z,66.60
2023-06-17T14:50:13.132Z,65.70
2023-06-17T14:52:42.353Z,65.90
2023-06-17T14:55:09.516Z,65.70
2023-06-17T14:57:36.292Z,66.00
2023-06-17T15:00:04.295Z,66.40
2023-06-17T15:02:57.357Z,67.00
2023-06-17T15:05:27.735Z,66.60
2023-06-17T15:07:54.758Z,66.00
2023-06-17T15:10:21.860Z,65.70
2023-06-17T15:12:48.917Z,65.40
2023-06-17T15:15:17.353Z,65.70
2023-06-17T15:17:44.208Z,65.40
2023-06-17T15:20:11.515Z,65.60
2023-06-17T15:22:38.772Z,65.50
2023-06-17T15:25:06.047Z,65.80
2023-06-17T15:27:32.770Z,65.90
2023-06-17T15:29:59.525Z,66.00
2023-06-17T15:32:26.288Z,65.40
2023-06-17T15:34:53.224Z,65.40
2023-06-17T15:37:20.070Z,65.50
2023-06-17T15:39:46.817Z,65.30
2023-06-17T15:42:13.706Z,65.10
2023-06-17T15:44:41.220Z,65.10
2023-06-17T15:47:09.006Z,64.80
2023-06-17T15:49:36.039Z,64.90
2023-06-17T15:52:04.032Z,64.50
2023-06-17T15:54:30.873Z,64.50
2023-06-17T15:56:58.075Z,64.80
2023-06-17T15:59:26.942Z,65.10
2023-06-17T16:01:54.104Z,65.30
2023-06-17T16:04:33.046Z,65.50
2023-06-17T16:07:01.411Z,65.30
2023-06-17T16:09:31.626Z,65.20
2023-06-17T16:11:59.658Z,65.20
2023-06-17T16:14:26.435Z,65.40
2023-06-17T16:16:53.248Z,65.40
2023-06-17T16:19:22.439Z,65.50
2023-06-17T16:21:49.549Z,65.60
2023-06-17T16:24:16.474Z,66.00
2023-06-17T16:26:43.293Z,66.10
2023-06-17T16:29:10.119Z,66.00
2023-06-17T16:31:36.831Z,65.80
2023-06-17T16:34:03.535Z,65.50
2023-06-17T16:36:30.465Z,65.60
2023-06-17T16:38:57.367Z,65.40
2023-06-17T16:41:24.440Z,65.00
2023-06-17T16:43:51.226Z,64.60
2023-06-17T16:46:18.260Z,64.70
2023-06-17T16:48:46.113Z,64.90
2023-06-17T16:51:12.906Z,65.80
2023-06-17T16:53:39.801Z,65.80
2023-06-17T16:56:06.778Z,66.00
2023-06-17T16:58:33.580Z,66.20
2023-06-17T17:01:00.320Z,66.50
2023-06-17T17:03:27.180Z,66.70
2023-06-17T17:05:54.192Z,66.90
2023-06-17T17:08:20.955Z,66.90
2023-06-17T17:10:47.664Z,66.90
2023-06-17T17:13:14.362Z,66.90
2023-06-17T17:15:41.445Z,67.00
2023-06-17T17:18:08.296Z,67.10
2023-06-17T17:20:35.006Z,67.20
2023-06-17T17:23:03.411Z,67.30
2023-06-17T17:25:30.481Z,67.50
2023-06-17T17:27:57.175Z,67.60
2023-06-17T17:30:24.045Z,67.60
2023-06-17T17:32:50.860Z,67.80
2023-06-17T17:35:18.838Z,67.90
2023-06-17T17:37:45.556Z,67.90
2023-06-17T17:40:12.866Z,68.10
2023-06-17T17:42:39.785Z,68.20
2023-06-17T17:45:07.288Z,68.30
2023-06-17T17:47:33.991Z,68.40
2023-06-17T17:50:00.819Z,68.50
2023-06-17T17:52:29.261Z,68.60
2023-06-17T17:55:02.432Z,68.70
2023-06-17T17:57:30.097Z,68.70
2023-06-17T17:59:56.937Z,68.80
2023-06-17T18:02:25.412Z,68.90
2023-06-17T18:04:52.262Z,69.10
2023-06-17T18:07:18.994Z,69.10
2023-06-17T18:09:45.695Z,69.10
2023-06-17T18:12:12.373Z,69.20
2023-06-17T18:14:39.449Z,69.30
2023-06-17T18:17:06.199Z,69.40
2023-06-17T18:19:32.957Z,69.40
2023-06-17T18:21:59.687Z,69.50
2023-06-17T18:24:26.414Z,69.60
2023-06-17T18:26:53.242Z,69.80
2023-06-17T18:29:24.546Z,69.70
2023-06-17T18:31:52.081Z,69.80
2023-06-17T18:34:18.821Z,69.90
2023-06-17T18:36:46.066Z,70.00
2023-06-17T18:39:13.280Z,70.10
2023-06-17T18:41:43.115Z,70.10
2023-06-17T18:44:10.861Z,70.60
2023-06-17T18:46:37.807Z,70.70
2023-06-17T18:49:07.602Z,70.80
2023-06-17T18:51:34.495Z,71.10
2023-06-17T18:54:01.233Z,71.50
2023-06-17T18:56:28.596Z,71.60
2023-06-17T18:58:55.715Z,71.50
2023-06-17T19:01:22.599Z,71.50
2023-06-17T19:03:49.381Z,71.60
2023-06-17T19:06:16.093Z,71.70
2023-06-17T19:08:42.861Z,71.80
2023-06-17T19:11:13.486Z,72.00
2023-06-17T19:13:40.561Z,72.30
2023-06-17T19:16:07.331Z,72.40
2023-06-17T19:18:34.091Z,72.60
2023-06-17T19:21:01.022Z,72.70
2023-06-17T19:23:27.774Z,72.70
2023-06-17T19:25:54.608Z,72.80
2023-06-17T19:28:21.293Z,72.70
2023-06-17T19:30:48.542Z,72.70
2023-06-17T19:33:16.295Z,72.70
2023-06-17T19:35:43.906Z,72.70
2023-06-17T19:38:10.764Z,72.80
2023-06-17T19:40:37.784Z,72.70
2023-06-17T19:43:04.564Z,72.80
2023-06-17T19:45:31.662Z,73.00
2023-06-17T19:48:01.934Z,73.10
2023-06-17T19:50:28.725Z,73.20
2023-06-17T19:52:55.972Z,73.20
2023-06-17T19:55:22.837Z,73.20
2023-06-17T19:57:49.555Z,73.40
2023-06-17T20:00:16.730Z,73.30
2023-06-17T20:02:43.783Z,73.20
2023-06-17T20:05:12.409Z,73.50
2023-06-17T20:07:39.256Z,73.60
2023-06-17T20:10:06.476Z,73.70
2023-06-17T20:12:33.363Z,74.00
2023-06-17T20:15:00.243Z,74.10
2023-06-17T20:17:27.133Z,74.20
2023-06-17T20:19:57.236Z,74.10
2023-06-17T20:22:24.455Z,74.10
2023-06-17T20:24:51.358Z,74.10
2023-06-17T20:27:18.087Z,74.00
2023-06-17T20:29:44.941Z,73.80
2023-06-17T20:32:15.099Z,73.70
2023-06-17T20:34:41.963Z,73.60
2023-06-17T20:37:09.096Z,73.50
2023-06-17T20:39:35.770Z,73.50
2023-06-17T20:42:02.450Z,73.50
2023-06-17T20:44:30.760Z,73.50
2023-06-17T20:47:00.568Z,73.50
2023-06-17T20:49:27.964Z,73.40
2023-06-17T20:51:55.278Z,73.40
2023-06-17T20:54:22.103Z,73.40
2023-06-17T20:56:49.032Z,73.30
2023-06-17T20:59:16.594Z,73.20
2023-06-17T21:01:43.659Z,73.20
2023-06-17T21:04:10.735Z,73.20
2023-06-17T21:06:37.584Z,73.30
2023-06-17T21:09:04.719Z,73.30
2023-06-17T21:11:31.765Z,73.30
2023-06-17T21:14:02.092Z,73.30
2023-06-17T21:16:30.256Z,73.30
2023-06-17T21:18:57.402Z,73.30
2023-06-17T21:21:27.812Z,73.40
2023-06-17T21:23:54.754Z,73.30
2023-06-17T21:26:24.669Z,73.30
2023-06-17T21:28:51.771Z,73.30
2023-06-17T21:31:18.472Z,73.40
2023-06-17T21:33:45.571Z,73.40
2023-06-17T21:36:12.476Z,73.50
2023-06-17T21:38:39.169Z,73.40
2023-06-17T21:41:06.057Z,73.70
2023-06-17T21:43:35.676Z,73.50
2023-06-17T21:46:02.826Z,73.50
2023-06-17T21:48:31.860Z,74.00
2023-06-17T21:50:58.754Z,74.10
2023-06-17T21:53:25.588Z,74.30
2023-06-17T21:55:52.312Z,74.40
2023-06-17T21:58:19.524Z,74.40
2023-06-17T22:00:46.405Z,74.00
2023-06-17T22:03:14.072Z,73.80
2023-06-17T22:05:41.097Z,73.90
2023-06-17T22:08:07.795Z,73.80
2023-06-17T22:10:34.797Z,73.70
2023-06-17T22:13:01.633Z,73.80
2023-06-17T22:15:28.317Z,73.80
2023-06-17T22:17:55.366Z,73.70
2023-06-17T22:20:22.363Z,73.60
2023-06-17T22:22:49.405Z,73.20
2023-06-17T22:25:16.323Z,73.00
2023-06-17T22:27:43.140Z,72.90
2023-06-17T22:30:10.485Z,72.90
2023-06-17T22:32:37.239Z,73.00
2023-06-17T22:35:04.781Z,72.90
2023-06-17T22:37:31.722Z,72.90
2023-06-17T22:39:58.389Z,72.90
2023-06-17T22:42:25.117Z,72.90
2023-06-17T22:44:51.811Z,73.00
2023-06-17T22:47:18.497Z,73.00
2023-06-17T22:49:45.192Z,73.10
2023-06-17T22:52:11.918Z,73.10
2023-06-17T22:54:38.594Z,73.20
2023-06-17T22:57:06.302Z,73.20
2023-06-17T22:59:33.077Z,73.20
2023-06-17T23:02:02.167Z,73.20
2023-06-17T23:04:31.604Z,73.20
2023-06-17T23:06:59.469Z,73.20
2023-06-17T23:09:26.239Z,73.20
2023-06-17T23:11:53.021Z,73.20
2023-06-17T23:14:19.873Z,73.20
2023-06-17T23:16:46.603Z,73.20
2023-06-17T23:19:13.604Z,73.20
2023-06-17T23:21:40.760Z,73.30
2023-06-17T23:24:08.839Z,73.30
2023-06-17T23:26:35.805Z,73.40
2023-06-17T23:29:02.823Z,73.40
2023-06-17T23:31:29.908Z,73.40
2023-06-17T23:33:57.063Z,73.40
2023-06-17T23:36:24.172Z,73.40
2023-06-17T23:38:51.087Z,73.50
2023-06-17T23:41:18.408Z,73.40
2023-06-17T23:43:45.311Z,73.50
2023-06-17T23:46:14.282Z,73.50
2023-06-17T23:48:41.725Z,73.50
2023-06-17T23:51:08.602Z,73.50
2023-06-17T23:53:35.360Z,73.50
2023-06-17T23:56:02.553Z,73.50
2023-06-17T23:58:31.868Z,73.50
